createdAt,value
2018-05-17T00:00:38.723Z,13.88
2018-05-17T00:01:38.585Z,13.92
2018-05-17T00:02:38.581Z,13.94
2018-05-17T00:03:38.553Z,13.92
2018-05-17T00:04:38.536Z,13.89
2018-05-17T00:05:38.706Z,13.87
2018-05-17T00:06:38.508Z,13.83
2018-05-17T00:07:38.501Z,13.89
2018-05-17T00:08:38.553Z,13.89
2018-05-17T00:09:38.473Z,13.87
2018-05-17T00:10:38.541Z,13.77
2018-05-17T00:11:38.451Z,13.77
2018-05-17T00:12:38.418Z,13.71
2018-05-17T00:13:38.405Z,13.77
2018-05-17T00:14:38.393Z,13.71
2018-05-17T00:15:38.579Z,13.76
2018-05-17T00:16:38.496Z,13.76
2018-05-17T00:17:38.475Z,13.81
2018-05-17T00:18:38.327Z,13.79
2018-05-17T00:19:38.314Z,13.79
2018-05-17T00:20:38.295Z,13.80
2018-05-17T00:21:38.293Z,13.69
2018-05-17T00:22:38.356Z,13.67
2018-05-17T00:23:38.299Z,13.71
2018-05-17T00:24:38.559Z,13.70
2018-05-17T00:25:38.251Z,13.58
2018-05-17T00:26:38.212Z,13.62
2018-05-17T00:27:38.187Z,13.55
2018-05-17T00:28:38.257Z,13.61
2018-05-17T00:29:38.375Z,13.62
2018-05-17T00:30:38.193Z,13.52
2018-05-17T00:31:38.130Z,13.56
2018-05-17T00:32:38.125Z,13.54
2018-05-17T00:33:38.108Z,13.55
2018-05-17T00:34:38.166Z,13.51
2018-05-17T00:35:38.069Z,13.51
2018-05-17T00:36:38.054Z,13.49
2018-05-17T00:37:38.040Z,13.51
2018-05-17T00:38:38.025Z,13.44
2018-05-17T00:39:38.015Z,13.52
2018-05-17T00:40:37.996Z,13.47
2018-05-17T00:41:37.985Z,13.41
2018-05-17T00:42:37.966Z,13.41
2018-05-17T00:43:38.433Z,13.36
2018-05-17T00:44:37.937Z,13.40
2018-05-17T00:45:37.924Z,13.38
2018-05-17T00:46:37.905Z,13.33
2018-05-17T00:47:37.893Z,13.37
2018-05-17T00:48:37.881Z,13.30
2018-05-17T00:49:37.863Z,13.36
2018-05-17T00:50:37.848Z,13.27
2018-05-17T00:51:37.832Z,13.29
2018-05-17T00:52:37.816Z,13.36
2018-05-17T00:53:37.803Z,13.33
2018-05-17T00:54:37.789Z,13.36
2018-05-17T00:55:37.766Z,13.36
2018-05-17T00:56:37.750Z,13.37
2018-05-17T00:57:37.744Z,13.37
2018-05-17T00:58:37.721Z,13.33
2018-05-17T00:59:37.706Z,13.36
2018-05-17T01:00:37.690Z,13.38
2018-05-17T01:01:37.683Z,13.30
2018-05-17T01:02:37.661Z,13.32
2018-05-17T01:03:37.646Z,13.30
2018-05-17T01:04:37.629Z,13.38
2018-05-17T01:05:37.618Z,13.27
2018-05-17T01:06:37.600Z,13.27
2018-05-17T01:07:37.584Z,13.36
2018-05-17T01:08:37.568Z,13.30
2018-05-17T01:09:37.555Z,13.24
2018-05-17T01:10:37.542Z,13.37
2018-05-17T01:11:37.523Z,13.40
2018-05-17T01:12:37.515Z,13.30
2018-05-17T01:13:37.494Z,13.30
2018-05-17T01:14:37.488Z,13.30
2018-05-17T01:15:37.462Z,13.29
2018-05-17T01:16:37.452Z,13.22
2018-05-17T01:17:37.433Z,13.29
2018-05-17T01:18:37.420Z,13.22
2018-05-17T01:19:37.405Z,13.12
2018-05-17T01:20:37.385Z,13.22
2018-05-17T01:21:37.375Z,13.18
2018-05-17T01:22:37.363Z,13.15
2018-05-17T01:23:37.353Z,13.22
2018-05-17T01:24:37.324Z,13.21
2018-05-17T01:25:37.314Z,13.21
2018-05-17T01:26:37.296Z,13.17
2018-05-17T01:27:37.286Z,13.18
2018-05-17T01:28:37.267Z,13.20
2018-05-17T01:29:37.248Z,13.27
2018-05-17T01:30:37.235Z,13.21
2018-05-17T01:31:37.219Z,13.21
2018-05-17T01:32:37.206Z,13.24
2018-05-17T01:33:37.194Z,13.15
2018-05-17T01:34:37.180Z,13.12
2018-05-17T01:35:37.157Z,13.15
2018-05-17T01:36:37.141Z,13.21
2018-05-17T01:37:37.128Z,13.25
2018-05-17T01:38:37.118Z,13.20
2018-05-17T01:39:37.097Z,13.22
2018-05-17T01:40:37.081Z,13.27
2018-05-17T01:41:37.071Z,13.25
2018-05-17T01:42:37.052Z,13.32
2018-05-17T01:43:37.036Z,13.36
2018-05-17T01:44:37.023Z,13.33
2018-05-17T01:45:37.007Z,13.29
2018-05-17T01:46:37.000Z,13.27
2018-05-17T01:47:36.973Z,13.30
2018-05-17T01:48:36.958Z,13.33
2018-05-17T01:49:36.945Z,13.33
2018-05-17T01:50:36.936Z,13.36
2018-05-17T01:51:36.913Z,13.38
2018-05-17T01:52:36.896Z,13.36
2018-05-17T01:53:36.891Z,13.41
2018-05-17T01:54:36.868Z,13.40
2018-05-17T01:55:36.852Z,13.38
2018-05-17T01:56:36.842Z,13.36
2018-05-17T01:57:36.826Z,13.40
2018-05-17T01:58:36.813Z,13.33
2018-05-17T01:59:36.791Z,13.40
2018-05-17T02:00:36.782Z,13.44
2018-05-17T02:01:36.763Z,13.38
2018-05-17T02:02:36.747Z,13.40
2018-05-17T02:03:36.730Z,13.46
2018-05-17T02:04:36.721Z,13.43
2018-05-17T02:05:36.708Z,13.47
2018-05-17T02:06:36.685Z,13.47
2018-05-17T02:07:36.669Z,13.49
2018-05-17T02:08:36.654Z,13.56
2018-05-17T02:09:36.641Z,13.51
2018-05-17T02:10:36.632Z,13.52
2018-05-17T02:11:36.619Z,13.51
2018-05-17T02:12:36.606Z,13.51
2018-05-17T02:13:36.581Z,13.54
2018-05-17T02:14:36.567Z,13.44
2018-05-17T02:15:36.552Z,13.52
2018-05-17T02:16:36.535Z,13.51
2018-05-17T02:17:36.522Z,13.49
2018-05-17T02:18:36.508Z,13.49
2018-05-17T02:19:36.494Z,13.54
2018-05-17T02:20:36.478Z,13.46
2018-05-17T02:21:36.469Z,13.55
2018-05-17T02:22:36.452Z,13.58
2018-05-17T02:23:36.434Z,13.51
2018-05-17T02:24:36.414Z,13.58
2018-05-17T02:25:36.401Z,13.56
2018-05-17T02:26:36.389Z,13.56
2018-05-17T02:27:36.377Z,13.55
2018-05-17T02:28:36.357Z,13.58
2018-05-17T02:29:36.341Z,13.54
2018-05-17T02:30:36.337Z,13.58
2018-05-17T02:31:36.310Z,13.65
2018-05-17T02:32:36.294Z,13.55
2018-05-17T02:33:36.286Z,13.55
2018-05-17T02:34:36.271Z,13.58
2018-05-17T02:35:36.255Z,13.55
2018-05-17T02:36:36.233Z,13.58
2018-05-17T02:37:36.220Z,13.69
2018-05-17T02:38:36.205Z,13.59
2018-05-17T02:39:36.199Z,13.67
2018-05-17T02:40:36.180Z,13.71
2018-05-17T02:41:36.164Z,13.65
2018-05-17T02:42:36.156Z,13.69
2018-05-17T02:43:36.148Z,13.69
2018-05-17T02:44:36.122Z,13.71
2018-05-17T02:45:36.112Z,13.79
2018-05-17T02:46:36.091Z,13.76
2018-05-17T02:47:36.077Z,13.79
2018-05-17T02:48:36.065Z,13.76
2018-05-17T02:49:36.045Z,13.83
2018-05-17T02:50:36.029Z,13.77
2018-05-17T02:51:36.013Z,13.79
2018-05-17T02:52:36.000Z,13.80
2018-05-17T02:53:36.007Z,13.76
2018-05-17T02:54:35.967Z,13.81
2018-05-17T02:55:35.959Z,13.74
2018-05-17T02:56:35.934Z,13.79
2018-05-17T02:57:35.922Z,13.81
2018-05-17T02:58:35.912Z,13.74
2018-05-17T02:59:35.896Z,13.76
2018-05-17T03:00:35.894Z,13.79
2018-05-17T03:01:35.867Z,13.71
2018-05-17T03:02:35.855Z,13.70
2018-05-17T03:03:35.839Z,13.80
2018-05-17T03:04:35.833Z,13.77
2018-05-17T03:05:35.803Z,13.67
2018-05-17T03:06:35.795Z,13.70
2018-05-17T03:07:35.773Z,13.70
2018-05-17T03:08:35.757Z,13.69
2018-05-17T03:09:35.747Z,13.74
2018-05-17T03:10:35.729Z,13.67
2018-05-17T03:11:35.719Z,13.69
2018-05-17T03:12:35.706Z,13.69
2018-05-17T03:13:35.692Z,13.69
2018-05-17T03:14:35.676Z,13.76
2018-05-17T03:15:35.654Z,13.69
2018-05-17T03:16:35.644Z,13.73
2018-05-17T03:17:35.628Z,13.79
2018-05-17T03:18:35.611Z,13.77
2018-05-17T03:19:35.606Z,13.71
2018-05-17T03:20:35.583Z,13.70
2018-05-17T03:21:35.567Z,13.62
2018-05-17T03:22:35.551Z,13.70
2018-05-17T03:23:35.542Z,13.67
2018-05-17T03:24:35.529Z,13.69
2018-05-17T03:25:35.503Z,13.67
2018-05-17T03:26:35.490Z,13.67
2018-05-17T03:27:35.478Z,13.65
2018-05-17T03:28:35.462Z,13.69
2018-05-17T03:29:35.443Z,13.70
2018-05-17T03:30:35.440Z,13.67
2018-05-17T03:31:35.420Z,13.63
2018-05-17T03:32:35.408Z,13.69
2018-05-17T03:33:35.387Z,13.71
2018-05-17T03:34:35.371Z,13.65
2018-05-17T03:35:35.364Z,13.73
2018-05-17T03:36:35.342Z,13.63
2018-05-17T03:37:35.332Z,13.70
2018-05-17T03:38:35.316Z,13.65
2018-05-17T03:39:35.307Z,13.70
2018-05-17T03:40:35.285Z,13.67
2018-05-17T03:41:35.265Z,13.67
2018-05-17T03:42:35.268Z,13.67
2018-05-17T03:43:35.240Z,13.71
2018-05-17T03:44:35.230Z,13.65
2018-05-17T03:45:35.214Z,13.74
2018-05-17T03:46:35.200Z,13.67
2018-05-17T03:47:35.178Z,13.65
2018-05-17T03:48:35.162Z,13.65
2018-05-17T03:49:35.147Z,13.67
2018-05-17T03:50:35.143Z,13.70
2018-05-17T03:51:35.127Z,13.63
2018-05-17T03:52:35.105Z,13.62
2018-05-17T03:53:35.086Z,13.63
2018-05-17T03:54:35.069Z,13.62
2018-05-17T03:55:35.057Z,13.70
2018-05-17T03:56:35.042Z,13.67
2018-05-17T03:57:35.034Z,13.65
2018-05-17T03:58:35.016Z,13.67
2018-05-17T03:59:35.003Z,13.55
2018-05-17T04:00:34.989Z,13.62
2018-05-17T04:01:34.971Z,13.65
2018-05-17T04:02:34.954Z,13.58
2018-05-17T04:03:34.948Z,13.55
2018-05-17T04:04:34.927Z,13.59
2018-05-17T04:05:34.906Z,13.63
2018-05-17T04:06:34.900Z,13.56
2018-05-17T04:07:34.880Z,13.62
2018-05-17T04:08:34.920Z,13.67
2018-05-17T04:09:34.861Z,13.54
2018-05-17T04:10:34.832Z,13.58
2018-05-17T04:11:34.820Z,13.61
2018-05-17T04:12:34.810Z,13.61
2018-05-17T04:13:34.788Z,13.58
2018-05-17T04:14:34.777Z,13.63
2018-05-17T04:15:34.768Z,13.54
2018-05-17T04:16:34.742Z,13.55
2018-05-17T04:17:34.732Z,13.58
2018-05-17T04:18:34.714Z,13.69
2018-05-17T04:19:34.713Z,13.65
2018-05-17T04:20:34.685Z,13.63
2018-05-17T04:21:34.683Z,13.62
2018-05-17T04:22:34.665Z,13.59
2018-05-17T04:23:34.637Z,13.55
2018-05-17T04:24:34.624Z,13.65
2018-05-17T04:25:34.611Z,13.54
2018-05-17T04:26:34.590Z,13.54
2018-05-17T04:27:34.584Z,13.56
2018-05-17T04:28:34.568Z,13.54
2018-05-17T04:29:34.555Z,13.49
2018-05-17T04:30:34.533Z,13.55
2018-05-17T04:31:34.520Z,13.51
2018-05-17T04:32:34.504Z,13.47
2018-05-17T04:33:34.501Z,13.44
2018-05-17T04:34:34.479Z,13.46
2018-05-17T04:35:34.459Z,13.49
2018-05-17T04:36:34.446Z,13.40
2018-05-17T04:37:34.452Z,13.44
2018-05-17T04:38:34.414Z,13.41
2018-05-17T04:39:34.398Z,13.55
2018-05-17T04:40:34.418Z,13.43
2018-05-17T04:41:34.393Z,13.46
2018-05-17T04:42:34.362Z,13.41
2018-05-17T04:43:34.341Z,13.44
2018-05-17T04:44:34.335Z,13.30
2018-05-17T04:45:34.328Z,13.40
2018-05-17T04:46:34.294Z,13.32
2018-05-17T04:47:34.287Z,13.32
2018-05-17T04:48:34.274Z,13.32
2018-05-17T04:49:34.249Z,13.32
2018-05-17T04:50:34.239Z,13.32
2018-05-17T04:51:34.227Z,13.25
2018-05-17T04:52:34.216Z,13.27
2018-05-17T04:53:34.192Z,13.21
2018-05-17T04:54:34.172Z,13.20
2018-05-17T04:55:34.165Z,13.04
2018-05-17T04:56:34.172Z,13.11
2018-05-17T04:57:34.134Z,13.11
2018-05-17T04:58:34.120Z,13.09
2018-05-17T04:59:34.108Z,13.04
2018-05-17T05:00:34.085Z,13.02
2018-05-17T05:01:34.082Z,13.03
2018-05-17T05:02:34.124Z,13.03
2018-05-17T05:03:34.037Z,13.11
2018-05-17T05:04:34.028Z,13.07
2018-05-17T05:05:34.009Z,13.02
2018-05-17T05:06:34.002Z,13.07
2018-05-17T05:07:33.981Z,13.07
2018-05-17T05:08:33.962Z,13.09
2018-05-17T05:09:34.869Z,13.11
2018-05-17T05:10:33.939Z,13.07
2018-05-17T05:11:33.916Z,13.20
2018-05-17T05:12:33.904Z,13.21
2018-05-17T05:13:33.888Z,13.20
2018-05-17T05:14:33.878Z,13.18
2018-05-17T05:15:33.861Z,13.18
2018-05-17T05:16:33.840Z,13.15
2018-05-17T05:17:33.831Z,13.22
2018-05-17T05:18:33.817Z,13.11
2018-05-17T05:19:33.804Z,13.25
2018-05-17T05:20:33.786Z,13.22
2018-05-17T05:21:33.777Z,13.30
2018-05-17T05:22:33.763Z,13.33
2018-05-17T05:23:33.735Z,13.30
2018-05-17T05:24:33.722Z,13.27
2018-05-17T05:25:33.706Z,13.27
2018-05-17T05:26:33.690Z,13.22
2018-05-17T05:27:33.678Z,13.22
2018-05-17T05:28:33.664Z,13.36
2018-05-17T05:29:33.649Z,13.36
2018-05-17T05:30:33.633Z,13.36
2018-05-17T05:31:33.688Z,13.32
2018-05-17T05:32:33.601Z,13.40
2018-05-17T05:33:33.593Z,13.32
2018-05-17T05:34:33.569Z,13.30
2018-05-17T05:35:33.558Z,13.37
2018-05-17T05:36:33.547Z,13.44
2018-05-17T05:37:33.558Z,13.46
2018-05-17T05:38:33.519Z,13.49
2018-05-17T05:39:33.504Z,13.49
2018-05-17T05:40:33.501Z,13.51
2018-05-17T05:41:33.468Z,13.54
2018-05-17T05:42:33.468Z,13.51
2018-05-17T05:43:33.437Z,13.59
2018-05-17T05:44:33.427Z,13.51
2018-05-17T05:45:33.416Z,13.56
2018-05-17T05:46:33.398Z,13.55
2018-05-17T05:47:33.380Z,13.54
2018-05-17T05:48:33.373Z,13.52
2018-05-17T05:49:33.387Z,13.56
2018-05-17T05:50:33.342Z,13.56
2018-05-17T05:51:33.328Z,13.58
2018-05-17T05:52:33.306Z,13.67
2018-05-17T05:53:33.296Z,13.69
2018-05-17T05:54:33.277Z,13.67
2018-05-17T05:55:33.261Z,13.67
2018-05-17T05:56:33.255Z,13.65
2018-05-17T05:57:33.233Z,13.77
2018-05-17T05:58:33.220Z,13.92
2018-05-17T05:59:33.210Z,13.92
2018-05-17T06:00:33.194Z,13.96
2018-05-17T06:01:33.187Z,13.99
2018-05-17T06:02:33.161Z,13.94
2018-05-17T06:03:33.148Z,13.89
2018-05-17T06:04:33.139Z,13.94
2018-05-17T06:05:33.129Z,13.91
2018-05-17T06:06:33.113Z,13.76
2018-05-17T06:07:33.095Z,13.74
2018-05-17T06:08:33.078Z,13.71
2018-05-17T06:09:33.072Z,13.61
2018-05-17T06:10:33.053Z,13.55
2018-05-17T06:11:33.034Z,13.62
2018-05-17T06:12:33.027Z,13.51
2018-05-17T06:13:33.012Z,13.49
2018-05-17T06:14:32.999Z,13.46
2018-05-17T06:15:32.987Z,13.47
2018-05-17T06:16:32.971Z,13.40
2018-05-17T06:17:32.965Z,13.09
2018-05-17T06:18:32.937Z,13.11
2018-05-17T06:19:32.930Z,13.11
2018-05-17T06:20:32.914Z,13.12
2018-05-17T06:21:32.894Z,13.22
2018-05-17T06:22:32.888Z,13.22
2018-05-17T06:23:32.866Z,13.11
2018-05-17T06:24:32.853Z,13.17
2018-05-17T06:25:32.837Z,13.14
2018-05-17T06:26:32.829Z,13.14
2018-05-17T06:27:32.808Z,13.14
2018-05-17T06:28:32.808Z,13.30
2018-05-17T06:29:32.782Z,13.30
2018-05-17T06:30:32.766Z,13.33
2018-05-17T06:31:32.756Z,13.38
2018-05-17T06:32:32.735Z,13.51
2018-05-17T06:33:32.728Z,13.51
2018-05-17T06:34:32.708Z,13.47
2018-05-17T06:35:32.699Z,13.52
2018-05-17T06:36:32.683Z,13.59
2018-05-17T06:37:32.753Z,13.61
2018-05-17T06:38:32.651Z,13.52
2018-05-17T06:39:32.635Z,13.51
2018-05-17T06:40:32.626Z,13.51
2018-05-17T06:41:32.613Z,13.46
2018-05-17T06:42:32.600Z,13.40
2018-05-17T06:43:32.586Z,13.49
2018-05-17T06:44:32.564Z,13.56
2018-05-17T06:45:32.558Z,13.47
2018-05-17T06:46:32.545Z,13.51
2018-05-17T06:47:32.529Z,13.47
2018-05-17T06:48:32.507Z,13.47
2018-05-17T06:49:32.502Z,13.56
2018-05-17T06:50:32.484Z,13.56
2018-05-17T06:51:32.465Z,13.62
2018-05-17T06:52:32.449Z,13.80
2018-05-17T06:53:32.436Z,13.95
2018-05-17T06:54:32.428Z,13.95
2018-05-17T06:55:32.408Z,13.79
2018-05-17T06:56:32.401Z,13.83
2018-05-17T06:57:32.381Z,13.65
2018-05-17T06:58:32.377Z,13.69
2018-05-17T06:59:32.352Z,13.63
2018-05-17T07:00:32.364Z,13.61
2018-05-17T07:01:32.324Z,13.71
2018-05-17T07:02:32.310Z,13.74
2018-05-17T07:03:32.298Z,13.74
2018-05-17T07:04:32.291Z,13.87
2018-05-17T07:05:32.272Z,13.77
2018-05-17T07:06:32.260Z,13.81
2018-05-17T07:07:32.252Z,13.76
2018-05-17T07:08:32.227Z,13.79
2018-05-17T07:09:32.218Z,13.95
2018-05-17T07:10:32.262Z,13.99
2018-05-17T07:11:32.185Z,14.07
2018-05-17T07:12:32.176Z,14.10
2018-05-17T07:13:32.159Z,14.17
2018-05-17T07:14:32.149Z,14.20
2018-05-17T07:15:32.135Z,14.29
2018-05-17T07:16:32.118Z,14.31
2018-05-17T07:17:32.111Z,14.43
2018-05-17T07:18:32.161Z,14.37
2018-05-17T07:19:32.076Z,14.28
2018-05-17T07:20:32.066Z,14.19
2018-05-17T07:21:32.050Z,14.10
2018-05-17T07:22:32.035Z,13.95
2018-05-17T07:23:32.028Z,14.06
2018-05-17T07:24:32.008Z,14.06
2018-05-17T07:25:31.996Z,14.02
2018-05-17T07:26:31.990Z,14.07
2018-05-17T07:27:31.973Z,14.13
2018-05-17T07:28:31.960Z,14.09
2018-05-17T07:29:31.948Z,14.09
2018-05-17T07:30:31.932Z,14.28
2018-05-17T07:31:31.926Z,14.24
2018-05-17T07:32:31.906Z,14.31
2018-05-17T07:33:31.894Z,14.32
2018-05-17T07:34:31.874Z,14.39
2018-05-17T07:35:31.865Z,14.50
2018-05-17T07:36:31.846Z,14.62
2018-05-17T07:37:31.833Z,14.65
2018-05-17T07:38:31.820Z,14.49
2018-05-17T07:39:31.813Z,14.46
2018-05-17T07:40:31.792Z,14.31
2018-05-17T07:41:31.785Z,14.13
2018-05-17T07:42:31.766Z,14.09
2018-05-17T07:43:31.760Z,14.10
2018-05-17T07:44:31.741Z,14.14
2018-05-17T07:45:31.731Z,14.19
2018-05-17T07:46:31.715Z,14.14
2018-05-17T07:47:31.698Z,14.10
2018-05-17T07:48:31.693Z,14.17
2018-05-17T07:49:31.684Z,14.38
2018-05-17T07:50:31.661Z,14.46
2018-05-17T07:51:31.651Z,14.71
2018-05-17T07:52:31.635Z,14.75
2018-05-17T07:53:31.622Z,14.71
2018-05-17T07:54:31.609Z,14.86
2018-05-17T07:55:31.613Z,14.93
2018-05-17T07:56:31.578Z,15.05
2018-05-17T07:57:31.565Z,15.13
2018-05-17T07:58:31.562Z,15.09
2018-05-17T07:59:31.543Z,15.06
2018-05-17T08:00:31.598Z,14.91
2018-05-17T08:01:31.530Z,14.81
2018-05-17T08:02:31.512Z,14.74
2018-05-17T08:03:31.500Z,14.84
2018-05-17T08:04:31.479Z,14.84
2018-05-17T08:05:31.470Z,14.80
2018-05-17T08:06:31.454Z,14.94
2018-05-17T08:07:31.450Z,15.26
2018-05-17T08:08:31.428Z,15.51
2018-05-17T08:09:31.440Z,15.76
2018-05-17T08:10:31.412Z,16.09
2018-05-17T08:11:31.393Z,15.72
2018-05-17T08:12:31.380Z,15.46
2018-05-17T08:13:31.378Z,15.31
2018-05-17T08:14:31.362Z,15.35
2018-05-17T08:15:31.355Z,15.43
2018-05-17T08:16:31.375Z,15.74
2018-05-17T08:17:31.327Z,15.88
2018-05-17T08:18:31.313Z,16.16
2018-05-17T08:19:31.313Z,16.00
2018-05-17T08:20:31.301Z,16.03
2018-05-17T08:21:31.281Z,16.20
2018-05-17T08:22:31.270Z,16.25
2018-05-17T08:23:31.259Z,16.25
2018-05-17T08:24:31.249Z,16.31
2018-05-17T08:25:31.241Z,16.34
2018-05-17T08:26:31.227Z,16.30
2018-05-17T08:27:31.221Z,16.16
2018-05-17T08:28:31.214Z,16.07
2018-05-17T08:29:31.196Z,16.16
2018-05-17T08:30:31.184Z,16.07
2018-05-17T08:31:31.181Z,16.11
2018-05-17T08:32:31.165Z,16.11
2018-05-17T08:33:31.159Z,16.23
2018-05-17T08:34:31.144Z,16.30
2018-05-17T08:35:31.133Z,16.42
2018-05-17T08:36:31.175Z,16.23
2018-05-17T08:37:31.114Z,16.27
2018-05-17T08:38:31.101Z,16.38
2018-05-17T08:39:31.098Z,16.42
2018-05-17T08:40:31.085Z,16.74
2018-05-17T08:41:31.069Z,17.15
2018-05-17T08:42:31.069Z,17.10
2018-05-17T08:43:31.050Z,17.03
2018-05-17T08:44:31.044Z,17.14
2018-05-17T08:45:31.036Z,17.17
2018-05-17T08:46:31.028Z,17.03
2018-05-17T08:47:31.030Z,17.35
2018-05-17T08:48:31.009Z,17.74
2018-05-17T08:49:30.999Z,17.67
2018-05-17T08:50:30.984Z,17.40
2018-05-17T08:51:30.981Z,17.28
2018-05-17T08:52:30.968Z,17.44
2018-05-17T08:53:30.955Z,17.46
2018-05-17T08:54:30.987Z,17.67
2018-05-17T08:55:30.946Z,17.67
2018-05-17T08:56:30.936Z,17.84
2018-05-17T08:57:30.923Z,17.67
2018-05-17T08:58:30.924Z,17.63
2018-05-17T08:59:30.904Z,17.85
2018-05-17T09:00:30.900Z,17.89
2018-05-17T09:01:30.888Z,17.97
2018-05-17T09:02:30.879Z,17.69
2018-05-17T09:03:30.875Z,16.83
2018-05-17T09:04:30.859Z,16.60
2018-05-17T09:05:30.853Z,16.35
2018-05-17T09:06:30.847Z,16.42
2018-05-17T09:07:30.839Z,16.30
2018-05-17T09:08:30.827Z,16.34
2018-05-17T09:09:30.817Z,16.27
2018-05-17T09:10:30.811Z,16.26
2018-05-17T09:11:30.803Z,16.50
2018-05-17T09:12:30.791Z,16.44
2018-05-17T09:13:30.841Z,16.71
2018-05-17T09:14:30.770Z,16.88
2018-05-17T09:15:30.766Z,16.86
2018-05-17T09:16:30.756Z,17.10
2018-05-17T09:17:30.740Z,17.46
2018-05-17T09:18:30.738Z,17.18
2018-05-17T09:19:30.796Z,17.46
2018-05-17T09:20:30.823Z,17.66
2018-05-17T09:21:30.705Z,17.87
2018-05-17T09:22:30.695Z,17.97
2018-05-17T09:23:30.692Z,17.92
2018-05-17T09:24:30.681Z,18.12
2018-05-17T09:25:30.669Z,18.37
2018-05-17T09:26:30.667Z,18.40
2018-05-17T09:27:30.651Z,18.22
2018-05-17T09:28:30.646Z,18.31
2018-05-17T09:29:30.648Z,18.44
2018-05-17T09:30:30.628Z,18.39
2018-05-17T09:31:30.622Z,18.57
2018-05-17T09:32:30.615Z,18.68
2018-05-17T09:33:30.606Z,18.55
2018-05-17T09:34:30.594Z,17.91
2018-05-17T09:35:30.599Z,18.00
2018-05-17T09:36:30.579Z,18.29
2018-05-17T09:37:30.573Z,18.18
2018-05-17T09:38:30.562Z,18.29
2018-05-17T09:39:30.560Z,18.19
2018-05-17T09:40:30.547Z,18.37
2018-05-17T09:41:30.639Z,18.24
2018-05-17T09:42:30.534Z,18.15
2018-05-17T09:43:30.528Z,18.27
2018-05-17T09:44:30.518Z,18.10
2018-05-17T09:45:30.511Z,18.18
2018-05-17T09:46:30.508Z,17.91
2018-05-17T09:47:30.582Z,17.81
2018-05-17T09:48:30.494Z,17.69
2018-05-17T09:49:30.485Z,17.92
2018-05-17T09:50:30.473Z,17.91
2018-05-17T09:51:30.470Z,17.79
2018-05-17T09:52:30.461Z,17.43
2018-05-17T09:53:30.456Z,17.35
2018-05-17T09:54:30.448Z,17.04
2018-05-17T09:55:30.438Z,17.06
2018-05-17T09:56:30.432Z,16.90
2018-05-17T09:57:30.418Z,16.89
2018-05-17T09:58:30.416Z,17.06
2018-05-17T09:59:30.403Z,17.08
2018-05-17T10:00:30.397Z,17.30
2018-05-17T10:01:30.386Z,17.64
2018-05-17T10:02:30.380Z,17.74
2018-05-17T10:03:30.373Z,17.91
2018-05-17T10:04:30.363Z,17.76
2018-05-17T10:05:30.357Z,17.67
2018-05-17T10:06:30.348Z,17.63
2018-05-17T10:07:30.345Z,17.55
2018-05-17T10:08:30.331Z,17.66
2018-05-17T10:09:30.329Z,17.66
2018-05-17T10:10:30.309Z,17.50
2018-05-17T10:11:30.309Z,17.69
2018-05-17T10:12:30.313Z,17.84
2018-05-17T10:13:30.292Z,17.76
2018-05-17T10:14:30.318Z,17.79
2018-05-17T10:15:30.344Z,18.07
2018-05-17T10:16:30.264Z,18.31
2018-05-17T10:17:30.265Z,18.43
2018-05-17T10:18:30.249Z,18.65
2018-05-17T10:19:30.242Z,18.79
2018-05-17T10:20:30.242Z,18.73
2018-05-17T10:21:30.233Z,18.73
2018-05-17T10:22:30.226Z,18.76
2018-05-17T10:23:30.216Z,18.67
2018-05-17T10:24:30.255Z,18.43
2018-05-17T10:25:30.201Z,18.65
2018-05-17T10:26:30.194Z,18.70
2018-05-17T10:27:30.198Z,19.10
2018-05-17T10:28:30.188Z,19.15
2018-05-17T10:29:30.186Z,19.38
2018-05-17T10:30:30.179Z,19.57
2018-05-17T10:31:30.168Z,19.42
2018-05-17T10:32:30.162Z,19.43
2018-05-17T10:33:30.150Z,19.57
2018-05-17T10:34:30.153Z,19.55
2018-05-17T10:35:30.140Z,19.51
2018-05-17T10:36:30.140Z,19.47
2018-05-17T10:37:30.133Z,19.28
2018-05-17T10:38:30.127Z,19.23
2018-05-17T10:39:30.126Z,19.29
2018-05-17T10:40:30.114Z,19.33
2018-05-17T10:41:30.114Z,19.40
2018-05-17T10:42:30.104Z,19.39
2018-05-17T10:43:30.100Z,19.47
2018-05-17T10:44:30.107Z,19.36
2018-05-17T10:45:30.092Z,19.38
2018-05-17T10:46:30.088Z,18.68
2018-05-17T10:47:30.079Z,18.44
2018-05-17T10:48:30.088Z,18.52
2018-05-17T10:49:30.076Z,18.65
2018-05-17T10:50:30.066Z,18.55
2018-05-17T10:51:30.060Z,18.58
2018-05-17T10:52:30.058Z,18.82
2018-05-17T10:53:30.056Z,18.79
2018-05-17T10:54:30.049Z,18.95
2018-05-17T10:55:30.040Z,18.99
2018-05-17T10:56:30.032Z,19.06
2018-05-17T10:57:30.031Z,19.31
2018-05-17T10:58:30.023Z,19.38
2018-05-17T10:59:30.015Z,19.55
2018-05-17T11:00:30.014Z,19.14
2018-05-17T11:01:30.010Z,19.43
2018-05-17T11:02:30.004Z,19.50
2018-05-17T11:03:29.995Z,19.54
2018-05-17T11:04:29.995Z,19.46
2018-05-17T11:05:29.983Z,19.53
2018-05-17T11:06:29.985Z,19.48
2018-05-17T11:07:29.976Z,19.48
2018-05-17T11:08:29.973Z,19.75
2018-05-17T11:09:29.963Z,19.63
2018-05-17T11:10:29.957Z,19.50
2018-05-17T11:11:29.954Z,19.63
2018-05-17T11:12:29.947Z,19.61
2018-05-17T11:13:29.941Z,19.46
2018-05-17T11:14:29.939Z,19.42
2018-05-17T11:15:29.931Z,19.40
2018-05-17T11:16:29.924Z,19.39
2018-05-17T11:17:29.925Z,19.57
2018-05-17T11:18:29.922Z,19.40
2018-05-17T11:19:29.915Z,19.38
2018-05-17T11:20:29.906Z,19.38
2018-05-17T11:21:29.900Z,19.05
2018-05-17T11:22:29.896Z,19.17
2018-05-17T11:23:29.889Z,18.94
2018-05-17T11:24:29.893Z,19.31
2018-05-17T11:25:29.880Z,19.40
2018-05-17T11:26:29.880Z,19.32
2018-05-17T11:27:29.877Z,19.32
2018-05-17T11:28:29.869Z,19.38
2018-05-17T11:29:29.867Z,19.55
2018-05-17T11:30:29.854Z,19.78
2018-05-17T11:31:29.851Z,19.98
2018-05-17T11:32:29.846Z,20.16
2018-05-17T11:33:29.844Z,20.34
2018-05-17T11:34:29.841Z,20.13
2018-05-17T11:35:29.842Z,20.03
2018-05-17T11:36:29.834Z,20.21
2018-05-17T11:37:29.826Z,20.39
2018-05-17T11:38:29.840Z,20.54
2018-05-17T11:39:29.822Z,20.69
2018-05-17T11:40:29.816Z,20.71
2018-05-17T11:41:29.810Z,20.65
2018-05-17T11:42:29.807Z,20.80
2018-05-17T11:43:29.803Z,20.83
2018-05-17T11:44:29.805Z,20.23
2018-05-17T11:45:29.796Z,20.53
2018-05-17T11:46:29.794Z,20.81
2018-05-17T11:47:29.789Z,21.02
2018-05-17T11:48:29.798Z,21.04
2018-05-17T11:49:29.780Z,21.05
2018-05-17T11:50:29.790Z,21.06
2018-05-17T11:51:29.774Z,20.72
2018-05-17T11:52:29.766Z,20.87
2018-05-17T11:53:29.766Z,20.68
2018-05-17T11:54:29.764Z,20.69
2018-05-17T11:55:29.767Z,20.90
2018-05-17T11:56:29.759Z,21.24
2018-05-17T11:57:29.751Z,21.23
2018-05-17T11:58:29.747Z,21.38
2018-05-17T11:59:29.744Z,21.59
2018-05-17T12:00:29.741Z,21.48
2018-05-17T12:01:29.824Z,20.98
2018-05-17T12:02:29.737Z,20.95
2018-05-17T12:03:29.734Z,21.05
2018-05-17T12:04:29.724Z,20.95
2018-05-17T12:05:29.725Z,21.01
2018-05-17T12:06:29.722Z,20.84
2018-05-17T12:07:29.734Z,20.68
2018-05-17T12:08:29.715Z,20.83
2018-05-17T12:09:29.716Z,20.74
2018-05-17T12:10:29.712Z,20.84
2018-05-17T12:11:29.702Z,20.93
2018-05-17T12:12:29.700Z,21.23
2018-05-17T12:13:29.702Z,20.99
2018-05-17T12:14:29.693Z,20.77
2018-05-17T12:15:29.689Z,20.61
2018-05-17T12:16:29.690Z,20.43
2018-05-17T12:17:29.686Z,20.16
2018-05-17T12:18:29.680Z,20.34
2018-05-17T12:19:29.682Z,20.31
2018-05-17T12:20:29.677Z,20.23
2018-05-17T12:21:29.671Z,19.93
2018-05-17T12:22:29.668Z,19.78
2018-05-17T12:23:29.670Z,19.84
2018-05-17T12:24:29.657Z,19.94
2018-05-17T12:25:29.651Z,19.43
2018-05-17T12:26:29.648Z,19.39
2018-05-17T12:27:29.645Z,19.50
2018-05-17T12:28:29.639Z,19.63
2018-05-17T12:29:29.632Z,19.80
2018-05-17T12:30:29.632Z,19.48
2018-05-17T12:31:29.626Z,19.53
2018-05-17T12:32:29.616Z,19.72
2018-05-17T12:33:29.613Z,19.68
2018-05-17T12:34:29.610Z,19.75
2018-05-17T12:35:29.603Z,19.70
2018-05-17T12:36:29.597Z,19.55
2018-05-17T12:37:29.593Z,19.53
2018-05-17T12:38:29.591Z,19.17
2018-05-17T12:39:29.578Z,19.05
2018-05-17T12:40:29.578Z,19.11
2018-05-17T12:41:29.572Z,18.95
2018-05-17T12:42:29.559Z,19.10
2018-05-17T12:43:29.552Z,18.98
2018-05-17T12:44:29.543Z,19.20
2018-05-17T12:45:29.541Z,19.36
2018-05-17T12:46:29.539Z,19.47
2018-05-17T12:47:29.537Z,19.47
2018-05-17T12:48:29.527Z,19.28
2018-05-17T12:49:29.514Z,19.21
2018-05-17T12:50:29.514Z,19.21
2018-05-17T12:51:29.500Z,19.48
2018-05-17T12:52:29.497Z,19.46